createdAt,value
2022-09-02T00:01:24.895Z,100257.66
2022-09-02T00:03:53.256Z,100265.94
2022-09-02T00:06:20.908Z,100262.88
2022-09-02T00:08:48.686Z,100261.78
2022-09-02T00:11:20.583Z,100259.88
2022-09-02T00:13:50.967Z,100253.19
2022-09-02T00:16:23.720Z,100253.25
2022-09-02T00:18:52.392Z,100251.28
2022-09-02T00:21:21.770Z,100254.47
2022-09-02T00:23:50.784Z,100242.94
2022-09-02T00:26:19.020Z,100248.94
2022-09-02T00:28:51.223Z,100244.81
2022-09-02T00:31:26.137Z,100238.56
2022-09-02T00:33:53.820Z,100235.28
2022-09-02T00:36:22.033Z,100240.84
2022-09-02T00:38:50.349Z,100236.59
2022-09-02T00:41:22.137Z,100230.00
2022-09-02T00:43:52.870Z,100234.84
2022-09-02T00:46:23.033Z,100244.97
2022-09-02T00:48:57.653Z,100240.59
2022-09-02T00:51:27.557Z,100242.34
2022-09-02T00:53:55.556Z,100230.44
2022-09-02T00:56:26.398Z,100237.78
2022-09-02T00:58:54.873Z,100227.06
2022-09-02T01:01:22.982Z,100232.09
2022-09-02T01:03:52.834Z,100232.34
2022-09-02T01:06:24.387Z,100227.16
2022-09-02T01:09:00.007Z,100237.69
2022-09-02T01:11:32.203Z,100239.44
2022-09-02T01:14:01.794Z,100229.41
2022-09-02T01:16:34.515Z,100229.97
2022-09-02T01:19:10.756Z,100236.59
2022-09-02T01:21:39.243Z,100232.84
2022-09-02T01:24:08.623Z,100234.59
2022-09-02T01:26:36.292Z,100236.13
2022-09-02T01:29:04.123Z,100236.22
2022-09-02T01:31:31.826Z,100231.44
2022-09-02T01:33:59.597Z,100244.16
2022-09-02T01:36:27.474Z,100233.53
2022-09-02T01:38:55.104Z,100235.78
2022-09-02T01:41:24.080Z,100231.53
2022-09-02T01:43:51.738Z,100233.19
2022-09-02T01:46:20.387Z,100229.53
2022-09-02T01:48:48.046Z,100232.00
2022-09-02T01:51:18.590Z,100225.38
2022-09-02T01:53:48.675Z,100224.22
2022-09-02T01:56:16.850Z,100231.53
2022-09-02T01:58:45.819Z,100226.47
2022-09-02T02:01:13.660Z,100225.19
2022-09-02T02:03:42.527Z,100225.28
2022-09-02T02:06:12.103Z,100230.94
2022-09-02T02:08:40.347Z,100229.66
2022-09-02T02:11:08.765Z,100233.56
2022-09-02T02:13:37.314Z,100236.00
2022-09-02T02:16:06.626Z,100233.19
2022-09-02T02:18:34.387Z,100229.88
2022-09-02T02:21:02.152Z,100231.19
2022-09-02T02:23:29.828Z,100238.25
2022-09-02T02:25:57.557Z,100236.13
2022-09-02T02:28:25.227Z,100226.91
2022-09-02T02:30:52.878Z,100229.97
2022-09-02T02:33:21.913Z,100221.00
2022-09-02T02:35:53.759Z,100231.50
2022-09-02T02:38:23.373Z,100224.28
2022-09-02T02:40:51.359Z,100225.69
2022-09-02T02:43:19.128Z,100233.81
2022-09-02T02:45:46.987Z,100229.34
2022-09-02T02:48:14.591Z,100240.06
2022-09-02T02:50:43.903Z,100234.53
2022-09-02T02:53:21.011Z,100228.41
2022-09-02T02:55:50.082Z,100237.03
2022-09-02T02:58:19.381Z,100234.66
2022-09-02T03:00:47.083Z,100240.31
2022-09-02T03:03:15.113Z,100236.69
2022-09-02T03:05:44.140Z,100232.69
2022-09-02T03:08:11.764Z,100237.50
2022-09-02T03:10:41.895Z,100232.34
2022-09-02T03:13:11.088Z,100231.28
2022-09-02T03:15:40.154Z,100222.06
2022-09-02T03:18:08.298Z,100226.06
2022-09-02T03:20:36.499Z,100222.38
2022-09-02T03:23:05.529Z,100226.97
2022-09-02T03:25:35.912Z,100217.56
2022-09-02T03:28:05.382Z,100224.78
2022-09-02T03:30:33.727Z,100210.81
2022-09-02T03:33:04.393Z,100224.16
2022-09-02T03:35:33.014Z,100214.28
2022-09-02T03:38:01.633Z,100208.75
2022-09-02T03:40:31.006Z,100212.63
2022-09-02T03:43:00.410Z,100218.84
2022-09-02T03:45:29.256Z,100223.16
2022-09-02T03:47:57.087Z,100216.25
2022-09-02T03:50:27.480Z,100211.16
2022-09-02T03:52:55.753Z,100212.56
2022-09-02T03:55:24.413Z,100210.94
2022-09-02T03:57:53.886Z,100212.22
2022-09-02T04:00:24.041Z,100213.47
2022-09-02T04:02:51.914Z,100211.97
2022-09-02T04:05:19.913Z,100211.97
2022-09-02T04:07:47.480Z,100215.44
2022-09-02T04:10:15.984Z,100213.28
2022-09-02T04:12:43.612Z,100216.09
2022-09-02T04:15:14.117Z,100210.47
2022-09-02T04:17:43.470Z,100217.53
2022-09-02T04:20:14.122Z,100216.47
2022-09-02T04:22:41.938Z,100218.50
2022-09-02T04:25:10.955Z,100217.09
2022-09-02T04:27:39.032Z,100222.31
2022-09-02T04:30:09.048Z,100216.25
2022-09-02T04:32:40.694Z,100220.00
2022-09-02T04:35:09.000Z,100223.22
2022-09-02T04:37:36.658Z,100218.25
2022-09-02T04:40:05.425Z,100222.31
2022-09-02T04:42:34.087Z,100226.06
2022-09-02T04:45:01.691Z,100226.38
2022-09-02T04:47:29.557Z,100228.03
2022-09-02T04:49:58.574Z,100226.38
2022-09-02T04:52:26.701Z,100227.44
2022-09-02T04:54:54.359Z,100223.78
2022-09-02T04:57:22.330Z,100224.31
2022-09-02T04:59:49.996Z,100228.22
2022-09-02T05:02:18.313Z,100224.56
2022-09-02T05:04:46.219Z,100226.16
2022-09-02T05:07:16.043Z,100225.84
2022-09-02T05:09:44.517Z,100218.53
2022-09-02T05:12:12.298Z,100230.13
2022-09-02T05:14:40.025Z,100230.81
2022-09-02T05:17:08.092Z,100233.91
2022-09-02T05:19:35.738Z,100234.94
2022-09-02T05:22:04.544Z,100234.25
2022-09-02T05:24:33.747Z,100228.72
2022-09-02T05:27:01.300Z,100232.34
2022-09-02T05:29:28.984Z,100233.63
2022-09-02T05:31:56.799Z,100231.63
2022-09-02T05:34:24.769Z,100225.13
2022-09-02T05:36:52.384Z,100229.78
2022-09-02T05:39:20.142Z,100229.81
2022-09-02T05:41:49.244Z,100226.88
2022-09-02T05:44:16.873Z,100222.41
2022-09-02T05:46:48.570Z,100226.31
2022-09-02T05:49:18.209Z,100227.44
2022-09-02T05:51:47.949Z,100231.59
2022-09-02T05:54:17.663Z,100234.97
2022-09-02T05:56:48.684Z,100220.72
2022-09-02T05:59:18.210Z,100234.75
2022-09-02T06:01:46.329Z,100234.25
2022-09-02T06:04:14.333Z,100231.25
2022-09-02T06:06:42.674Z,100224.00
2022-09-02T06:09:14.760Z,100224.31
2022-09-02T06:11:46.070Z,100217.28
2022-09-02T06:14:15.533Z,100214.69
2022-09-02T06:16:45.333Z,100224.75
2022-09-02T06:19:17.627Z,100222.88
2022-09-02T06:21:48.961Z,100226.41
2022-09-02T06:24:16.654Z,100204.00
2022-09-02T06:26:44.308Z,100204.25
2022-09-02T06:29:12.480Z,100187.91
2022-09-02T06:31:43.218Z,100210.97
2022-09-02T06:34:14.947Z,100214.19
2022-09-02T06:36:54.188Z,100198.22
2022-09-02T06:39:25.824Z,100197.63
2022-09-02T06:41:53.791Z,100193.28
2022-09-02T06:44:22.608Z,100176.34
2022-09-02T06:46:55.264Z,100173.31
2022-09-02T06:49:26.204Z,100182.91
2022-09-02T06:51:55.631Z,100178.66
2022-09-02T06:54:24.909Z,100173.19
2022-09-02T06:56:53.115Z,100173.63
2022-09-02T06:59:24.532Z,100179.63
2022-09-02T07:01:52.798Z,100178.25
2022-09-02T07:04:38.082Z,100164.03
2022-09-02T07:07:09.137Z,100170.34
2022-09-02T07:09:38.533Z,100159.56
2022-09-02T07:12:07.229Z,100150.75
2022-09-02T07:14:38.268Z,100156.28
2022-09-02T07:17:06.304Z,100162.09
2022-09-02T07:19:34.232Z,100158.44
2022-09-02T07:22:03.355Z,100164.53
2022-09-02T07:24:32.598Z,100151.81
2022-09-02T07:27:00.214Z,100147.97
2022-09-02T07:29:27.788Z,100141.97
2022-09-02T07:31:55.752Z,100153.13
2022-09-02T07:34:24.113Z,100156.66
2022-09-02T07:36:52.558Z,100145.56
2022-09-02T07:39:21.113Z,100146.94
2022-09-02T07:41:55.652Z,100167.31
2022-09-02T07:44:23.842Z,100155.56
2022-09-02T07:46:52.455Z,100161.00
2022-09-02T07:49:23.921Z,100162.00
2022-09-02T07:51:52.854Z,100162.22
2022-09-02T07:54:23.712Z,100171.31
2022-09-02T07:56:52.773Z,100164.75
2022-09-02T07:59:21.617Z,100158.31
2022-09-02T08:01:51.417Z,100168.75
2022-09-02T08:04:20.323Z,100149.22
2022-09-02T08:06:48.383Z,100161.91
2022-09-02T08:09:16.221Z,100162.47
2022-09-02T08:11:47.509Z,100144.44
2022-09-02T08:14:20.509Z,100151.81
2022-09-02T08:16:49.403Z,100143.59
2022-09-02T08:19:17.148Z,100142.09
2022-09-02T08:21:45.344Z,100141.97
2022-09-02T08:24:13.224Z,100145.56
2022-09-02T08:26:40.935Z,100151.97
2022-09-02T08:29:10.292Z,100169.44
2022-09-02T08:31:41.585Z,100166.19
2022-09-02T08:34:09.570Z,100154.31
2022-09-02T08:36:37.202Z,100143.75
2022-09-02T08:39:05.883Z,100140.19
2022-09-02T08:41:43.104Z,100137.75
2022-09-02T08:44:13.007Z,100140.28
2022-09-02T08:46:42.517Z,100145.28
2022-09-02T08:49:16.795Z,100141.81
2022-09-02T08:51:53.146Z,100145.09
2022-09-02T08:54:27.133Z,100148.50
2022-09-02T08:56:54.865Z,100131.63
2022-09-02T08:59:25.387Z,100142.88
2022-09-02T09:02:01.181Z,100128.22
2022-09-02T09:04:49.693Z,100138.06
2022-09-02T09:07:25.985Z,100118.66
2022-09-02T09:10:07.282Z,100134.09
2022-09-02T09:12:54.669Z,100127.34
2022-09-02T09:15:33.382Z,100123.59
2022-09-02T09:18:06.124Z,100118.38
2022-09-02T09:20:36.148Z,100110.06
2022-09-02T09:23:13.370Z,100115.06
2022-09-02T09:25:41.474Z,100114.72
2022-09-02T09:28:09.088Z,100119.53
2022-09-02T09:30:37.091Z,100113.31
2022-09-02T09:33:06.948Z,100098.22
2022-09-02T09:35:49.570Z,100089.75
2022-09-02T09:38:17.290Z,100093.59
2022-09-02T09:40:45.211Z,100085.13
2022-09-02T09:43:16.167Z,100099.06
2022-09-02T09:45:45.694Z,100083.47
2022-09-02T09:48:25.755Z,100092.56
2022-09-02T09:51:13.420Z,100090.88
2022-09-02T09:53:41.962Z,100082.84
2022-09-02T09:56:27.132Z,100075.81
2022-09-02T09:58:55.177Z,100074.31
2022-09-02T10:01:28.199Z,100087.63
2022-09-02T10:04:00.855Z,100075.38
2022-09-02T10:06:38.865Z,100067.34
2022-09-02T10:09:27.237Z,100074.97
2022-09-02T10:11:57.560Z,100073.78
2022-09-02T10:14:29.813Z,100067.06
2022-09-02T10:17:10.771Z,100062.06
2022-09-02T10:19:47.357Z,100073.34
2022-09-02T10:22:59.976Z,100072.25
2022-09-02T10:25:34.891Z,100064.09
2022-09-02T10:28:15.225Z,100061.91
2022-09-02T10:30:53.593Z,100058.56
2022-09-02T10:33:31.553Z,100052.97
2022-09-02T10:36:17.145Z,100053.84
2022-09-02T10:38:48.830Z,100047.44
2022-09-02T10:41:35.652Z,100052.72
2022-09-02T10:44:33.920Z,100029.31
2022-09-02T10:47:03.899Z,100040.16
2022-09-02T10:50:02.731Z,100024.75
2022-09-02T10:52:59.041Z,100035.06
2022-09-02T10:55:43.099Z,100030.75
2022-09-02T10:58:17.095Z,100022.59
2022-09-02T11:00:51.868Z,100013.19
2022-09-02T11:03:25.234Z,100008.84
2022-09-02T11:05:56.708Z,100006.31
2022-09-02T11:08:34.514Z,99999.53
2022-09-02T11:11:07.856Z,100008.53
2022-09-02T11:13:43.422Z,100010.88
2022-09-02T11:16:18.037Z,100010.38
2022-09-02T11:18:53.106Z,100005.56
2022-09-02T11:21:35.668Z,99992.03
2022-09-02T11:24:10.826Z,99991.44
2022-09-02T11:26:42.979Z,99986.31
2022-09-02T11:29:15.762Z,99990.84
2022-09-02T11:31:45.749Z,99988.25
2022-09-02T11:34:21.863Z,99982.97
2022-09-02T11:36:50.151Z,99984.53
2022-09-02T11:39:49.554Z,99984.59
2022-09-02T11:42:33.336Z,99966.16
2022-09-02T11:45:31.062Z,99969.25
2022-09-02T11:48:13.019Z,99980.84
2022-09-02T11:50:53.544Z,99970.38
2022-09-02T11:53:25.783Z,99977.50
2022-09-02T11:56:02.907Z,99962.16
2022-09-02T11:58:32.960Z,99963.59
2022-09-02T12:01:31.556Z,99959.47
2022-09-02T12:07:26.859Z,99946.63
2022-09-02T12:10:00.083Z,99953.75
2022-09-02T12:13:18.837Z,99947.00
2022-09-02T12:15:46.699Z,99949.09
2022-09-02T12:18:30.982Z,99944.34
2022-09-02T12:21:11.134Z,99942.03
2022-09-02T12:24:09.364Z,99937.88
2022-09-02T12:27:09.139Z,99944.81
2022-09-02T12:29:38.091Z,99940.34
2022-09-02T12:32:09.562Z,99933.38
2022-09-02T12:34:56.844Z,99942.03
2022-09-02T12:37:54.277Z,99936.50
2022-09-02T12:40:33.613Z,99928.41
2022-09-02T12:43:05.639Z,99922.88
2022-09-02T12:45:42.191Z,99930.47
2022-09-02T12:48:13.922Z,99917.44
2022-09-02T12:50:56.106Z,99915.84
2022-09-02T12:53:32.937Z,99905.53
2022-09-02T12:56:04.110Z,99917.44
2022-09-02T12:58:35.775Z,99900.03
2022-09-02T13:01:15.602Z,99904.81
2022-09-02T13:04:10.571Z,99901.28
2022-09-02T13:06:55.807Z,99894.00
2022-09-02T13:10:04.139Z,99890.38
2022-09-02T13:13:20.870Z,99881.16
2022-09-02T13:16:03.758Z,99878.22
2022-09-02T13:18:56.198Z,99876.59
2022-09-02T13:21:45.813Z,99877.91
2022-09-02T13:24:49.108Z,99875.84
2022-09-02T13:27:45.490Z,99869.00
2022-09-02T13:30:20.172Z,99870.13
2022-09-02T13:32:57.497Z,99869.53
2022-09-02T13:35:29.123Z,99858.88
2022-09-02T13:38:00.405Z,99865.19
2022-09-02T13:40:30.067Z,99853.28
2022-09-02T13:42:59.235Z,99864.03
2022-09-02T13:45:28.640Z,99845.97
2022-09-02T13:47:58.639Z,99838.88
2022-09-02T13:50:29.976Z,99838.19
2022-09-02T13:55:51.685Z,99835.16
2022-09-02T13:58:34.883Z,99828.63
2022-09-02T14:01:20.257Z,99833.91
2022-09-02T14:03:51.866Z,99812.72
2022-09-02T14:06:23.672Z,99811.03
2022-09-02T14:08:54.810Z,99804.06
2022-09-02T14:11:22.688Z,99809.72
2022-09-02T14:13:52.087Z,99803.56
2022-09-02T14:16:33.525Z,99806.44
2022-09-02T14:19:05.758Z,99802.31
2022-09-02T14:21:36.052Z,99796.19
2022-09-02T14:24:04.872Z,99794.22
2022-09-02T14:26:37.169Z,99784.91
2022-09-02T14:29:07.152Z,99783.69
2022-09-02T14:31:35.540Z,99775.84
2022-09-02T14:34:04.477Z,99785.69
2022-09-02T14:36:38.749Z,99787.97
2022-09-02T14:39:14.022Z,99770.59
2022-09-02T14:41:47.706Z,99771.38
2022-09-02T14:44:19.112Z,99761.00
2022-09-02T14:46:48.915Z,99765.25
2022-09-02T14:49:21.167Z,99763.16
2022-09-02T14:51:52.734Z,99754.72
2022-09-02T14:54:39.313Z,99761.22
2022-09-02T14:57:20.300Z,99746.34
2022-09-02T14:59:47.949Z,99751.81
2022-09-02T15:02:24.589Z,99743.84
2022-09-02T15:04:52.292Z,99744.03
2022-09-02T15:07:21.404Z,99743.59
2022-09-02T15:09:52.581Z,99745.44
2022-09-02T15:12:24.670Z,99743.59
2022-09-02T15:14:52.457Z,99734.34
2022-09-02T15:17:20.933Z,99739.31
2022-09-02T15:19:49.111Z,99729.25
2022-09-02T15:22:17.999Z,99722.84
2022-09-02T15:24:48.628Z,99725.38
2022-09-02T15:27:17.316Z,99722.53
2022-09-02T15:29:49.390Z,99726.03
2022-09-02T15:32:17.255Z,99719.50
2022-09-02T15:34:45.070Z,99723.94
2022-09-02T15:37:13.301Z,99712.19
2022-09-02T15:39:41.491Z,99722.41
2022-09-02T15:42:10.567Z,99722.84
2022-09-02T15:44:38.225Z,99729.34
2022-09-02T15:47:06.287Z,99732.25
2022-09-02T15:49:33.859Z,99722.38
2022-09-02T15:52:02.665Z,99726.19
2022-09-02T15:54:31.562Z,99726.75
2022-09-02T15:57:00.156Z,99718.78
2022-09-02T15:59:29.165Z,99711.88
2022-09-02T16:01:58.660Z,99722.47
2022-09-02T16:04:27.806Z,99714.44
2022-09-02T16:06:55.743Z,99704.78
2022-09-02T16:09:23.938Z,99716.31
2022-09-02T16:11:53.629Z,99715.88
2022-09-02T16:14:23.293Z,99710.69
2022-09-02T16:16:54.960Z,99708.09
2022-09-02T16:19:24.116Z,99712.13
2022-09-02T16:21:52.843Z,99711.75
2022-09-02T16:24:22.737Z,99719.16
2022-09-02T16:26:51.875Z,99701.94
2022-09-02T16:29:20.983Z,99706.03
2022-09-02T16:32:02.333Z,99708.22
2022-09-02T16:34:39.292Z,99707.72
2022-09-02T16:37:06.977Z,99707.66
2022-09-02T16:39:34.662Z,99695.41
2022-09-02T16:42:04.346Z,99705.03
2022-09-02T16:44:33.822Z,99697.03
2022-09-02T16:47:01.543Z,99700.94
2022-09-02T16:49:29.145Z,99702.88
2022-09-02T16:51:58.701Z,99706.16
2022-09-02T16:54:31.294Z,99700.09
2022-09-02T16:57:01.122Z,99692.00
2022-09-02T16:59:28.913Z,99688.25
2022-09-02T17:01:56.567Z,99692.34
2022-09-02T17:04:24.307Z,99688.78
2022-09-02T17:06:52.171Z,99693.00
2022-09-02T17:09:21.742Z,99692.22
2022-09-02T17:11:49.379Z,99700.22
2022-09-02T17:14:18.827Z,99708.72
2022-09-02T17:16:48.601Z,99703.03
2022-09-02T17:19:21.301Z,99703.03
2022-09-02T17:21:50.817Z,99707.41
2022-09-02T17:24:19.991Z,99704.75
2022-09-02T17:26:51.546Z,99708.66
2022-09-02T17:29:47.481Z,99705.69
2022-09-02T17:32:08.782Z,99714.50
2022-09-02T17:34:37.570Z,99709.09
2022-09-02T17:37:05.716Z,99703.03
2022-09-02T17:39:34.359Z,99708.38
2022-09-02T17:42:02.941Z,99709.66
2022-09-02T17:44:35.484Z,99708.28
2022-09-02T17:47:05.953Z,99706.69
2022-09-02T17:49:35.448Z,99708.41
2022-09-02T17:52:04.263Z,99712.28
2022-09-02T17:54:32.075Z,99704.41
2022-09-02T17:57:28.207Z,99700.84
2022-09-02T18:00:06.475Z,99707.19
2022-09-02T18:03:18.027Z,99707.22
2022-09-02T18:06:08.450Z,99717.13
2022-09-02T18:08:45.572Z,99715.50
2022-09-02T18:11:14.065Z,99716.34
2022-09-02T18:13:54.565Z,99712.56
2022-09-02T18:16:32.085Z,99719.13
2022-09-02T18:19:14.076Z,99709.91
2022-09-02T18:22:08.114Z,99714.00
2022-09-02T18:24:58.142Z,99720.63
2022-09-02T18:27:38.363Z,99718.47
2022-09-02T18:30:09.729Z,99722.06
2022-09-02T18:32:56.008Z,99728.63
2022-09-02T18:35:32.553Z,99725.09
2022-09-02T18:38:09.996Z,99728.41
2022-09-02T18:40:48.883Z,99724.00
2022-09-02T18:43:23.678Z,99736.06
2022-09-02T18:45:54.611Z,99726.25
2022-09-02T18:48:27.750Z,99729.25
2022-09-02T18:50:59.596Z,99733.09
2022-09-02T18:53:30.980Z,99730.09
2022-09-02T18:56:04.109Z,99731.75
2022-09-02T18:58:37.745Z,99742.94
2022-09-02T19:01:11.601Z,99744.88
2022-09-02T19:03:39.413Z,99749.81
2022-09-02T19:06:11.354Z,99744.88
2022-09-02T19:08:38.273Z,99748.72
2022-09-02T19:11:12.078Z,99748.72
2022-09-02T19:13:48.224Z,99745.19
2022-09-02T19:16:20.200Z,99748.72
2022-09-02T19:18:49.293Z,99750.63
2022-09-02T19:21:19.979Z,99748.47
2022-09-02T19:23:49.111Z,99749.03
2022-09-02T19:26:17.868Z,99755.28
2022-09-02T19:28:46.835Z,99746.28
2022-09-02T19:31:21.656Z,99748.47
2022-09-02T19:33:52.570Z,99740.84
2022-09-02T19:36:22.512Z,99743.81
2022-09-02T19:38:50.240Z,99751.19
2022-09-02T19:41:17.868Z,99754.47
2022-09-02T19:43:45.436Z,99759.91
2022-09-02T19:46:34.932Z,99749.25
2022-09-02T19:49:02.057Z,99747.88
2022-09-02T19:51:29.793Z,99757.72
2022-09-02T19:53:57.585Z,99762.06
2022-09-02T19:56:25.353Z,99753.63
2022-09-02T19:58:52.963Z,99756.88
2022-09-02T20:01:20.626Z,99757.97
2022-09-02T20:03:48.261Z,99756.63
2022-09-02T20:06:17.207Z,99759.88
2022-09-02T20:08:44.867Z,99756.06
2022-09-02T20:11:12.578Z,99763.69
2022-09-02T20:13:41.775Z,99758.50
2022-09-02T20:16:17.657Z,99756.56
2022-09-02T20:18:48.206Z,99764.22
2022-09-02T20:21:23.352Z,99757.91
2022-09-02T20:23:53.666Z,99761.69
2022-09-02T20:26:35.025Z,99763.50
2022-09-02T20:29:20.113Z,99767.03
2022-09-02T20:32:03.284Z,99754.44
2022-09-02T20:34:42.510Z,99762.81
2022-09-02T20:37:21.707Z,99767.38
2022-09-02T20:40:03.637Z,99759.75
2022-09-02T20:42:50.596Z,99772.50
2022-09-02T20:45:26.649Z,99774.94
2022-09-02T20:48:06.102Z,99777.94
2022-09-02T20:50:43.107Z,99780.31
2022-09-02T20:53:28.280Z,99777.66
2022-09-02T20:56:02.127Z,99777.09
2022-09-02T20:58:38.939Z,99780.31
2022-09-02T21:01:09.116Z,99775.59
2022-09-02T21:03:46.880Z,99779.97
2022-09-02T21:06:15.818Z,99769.53
2022-09-02T21:09:03.838Z,99772.41
2022-09-02T21:11:37.811Z,99775.06
2022-09-02T21:14:10.267Z,99775.53
2022-09-02T21:16:42.737Z,99777.75
2022-09-02T21:19:18.720Z,99772.59
2022-09-02T21:21:53.714Z,99770.50
2022-09-02T21:24:28.105Z,99766.25
2022-09-02T21:27:00.516Z,99771.53
2022-09-02T21:29:33.088Z,99771.06
2022-09-02T21:32:07.493Z,99774.78
2022-09-02T21:34:40.998Z,99769.41
2022-09-02T21:37:10.326Z,99777.63
2022-09-02T21:39:42.963Z,99773.28
2022-09-02T21:42:22.237Z,99774.03
2022-09-02T21:45:04.687Z,99778.13
2022-09-02T21:47:37.109Z,99779.19
2022-09-02T21:50:10.207Z,99778.09
2022-09-02T21:52:56.826Z,99783.56
2022-09-02T21:55:40.256Z,99790.88
2022-09-02T21:58:27.223Z,99793.84
2022-09-02T22:01:03.781Z,99795.25
2022-09-02T22:03:39.991Z,99792.34
2022-09-02T22:06:14.557Z,99792.78
2022-09-02T22:08:48.285Z,99798.47
2022-09-02T22:11:26.530Z,99788.00
2022-09-02T22:13:57.463Z,99790.28
2022-09-02T22:16:39.312Z,99784.03
2022-09-02T22:19:08.336Z,99792.41
2022-09-02T22:21:48.003Z,99798.09
2022-09-02T22:24:16.137Z,99785.91
2022-09-02T22:26:51.262Z,99782.88
2022-09-02T22:29:25.007Z,99784.50
2022-09-02T22:31:57.735Z,99784.50
2022-09-02T22:34:28.103Z,99781.75
2022-09-02T22:37:00.464Z,99781.25
2022-09-02T22:39:37.097Z,99785.28
2022-09-02T22:42:17.743Z,99778.25
2022-09-02T22:45:07.190Z,99774.47
2022-09-02T22:47:54.444Z,99777.56
2022-09-02T22:50:50.058Z,99769.56
2022-09-02T22:53:18.056Z,99771.34
2022-09-02T22:55:58.648Z,99765.72
2022-09-02T22:59:10.479Z,99770.53
2022-09-02T23:01:53.556Z,99775.66
2022-09-02T23:04:35.527Z,99774.28
2022-09-02T23:07:05.092Z,99774.78
2022-09-02T23:09:34.251Z,99776.31
2022-09-02T23:12:16.067Z,99782.63
2022-09-02T23:14:58.404Z,99777.38
2022-09-02T23:17:35.780Z,99780.84
2022-09-02T23:20:10.153Z,99790.13
2022-09-02T23:23:04.329Z,99791.69
2022-09-02T23:26:03.847Z,99791.34
2022-09-02T23:28:40.497Z,99790.28
2022-09-02T23:31:18.655Z,99785.91
2022-09-02T23:33:54.407Z,99781.91
2022-09-02T23:36:34.169Z,99778.66
2022-09-02T23:39:19.109Z,99788.41
2022-09-02T23:41:47.963Z,99781.44
2022-09-02T23:44:16.772Z,99781.66
2022-09-02T23:46:57.280Z,99779.38
2022-09-02T23:49:38.959Z,99775.03
2022-09-02T23:52:16.356Z,99773.41
2022-09-02T23:55:01.187Z,99772.53
2022-09-02T23:58:05.097Z,99772.41
